METAR Data
IDs: Format: Raw Decoded Include TAF

Data at: 1715 UTC 21 Sep 2018

KJXI 211655Z AUTO 17005KT 10SM SCT019 SCT029 BKN075 28/24 A3001 RMK AO2 LTG DSNT SE T02820240
KJXI 211635Z AUTO 16006KT 10SM RA BKN019 BKN025 OVC100 28/24 A3001 RMK AO2 LTG DSNT SE T02800242
KJXI 211615Z AUTO 14006KT 10SM BKN017 BKN025 OVC035 28/24 A3002 RMK AO2 T02760240
KJXI 211555Z AUTO 15006KT 10SM OVC015 27/24 A3002 RMK AO2 T02740240
KJXI 211535Z AUTO 14004KT 10SM OVC013 27/24 A3002 RMK AO2 T02690241
KJXI 211515Z AUTO 14005KT 10SM TS BKN011 OVC110 27/24 A3001 RMK AO2 LTG DSNT ALQS T02650240
KJXI 211455Z AUTO 11005KT 10SM BKN011 OVC110 26/24 A3001 RMK AO2 T02600239
KJXI 211435Z AUTO 12004KT 10SM BKN011 BKN018 OVC110 26/24 A3001 RMK AO2 T02560238
KJXI 211415Z AUTO 12003KT 10SM SCT011 OVC110 25/24 A3001 RMK AO2 T02520236
KJXI 211355Z AUTO 12004KT 10SM OVC110 25/24 A3001 RMK AO2 T02500235
KJXI 211335Z AUTO 13003KT 10SM OVC110 25/24 A3001 RMK AO2 T02470235
KJXI 211315Z AUTO 00000KT 10SM OVC110 24/23 A3001 RMK AO2 T02430232
KJXI 211255Z AUTO 00000KT 10SM OVC110 24/23 A3000 RMK AO2 T02410230
KJXI 211235Z AUTO 00000KT 10SM OVC110 24/23 A3000 RMK AO2 T02410230
KJXI 211215Z AUTO 00000KT 10SM OVC110 24/23 A2999 RMK AO2 T02400228
KJXI 211155Z AUTO 00000KT 10SM OVC120 24/23 A2999 RMK AO2 T02400228 10248 20239
KJXI 211135Z AUTO 00000KT 10SM OVC120 24/23 A2999 RMK AO2 T02400227
KJXI 211115Z AUTO 12003KT 10SM OVC120 24/23 A2999 RMK AO2 T02400226
KJXI 211055Z AUTO 00000KT 10SM SCT095 OVC120 24/23 A2998 RMK AO2 T02410226
KJXI 211035Z AUTO 00000KT 10SM OVC110 24/23 A2998 RMK AO2 T02410225
KJXI 211015Z AUTO 00000KT 10SM BKN120 24/22 A2998 RMK AO2 T02420224
KJXI 210955Z AUTO 00000KT 10SM BKN120 24/22 A2998 RMK AO2 T02430224
KJXI 210935Z AUTO 18003KT 10SM SCT120 25/22 A2998 RMK AO2 T02450223
KJXI 210915Z AUTO 00000KT 10SM TS SCT120 25/22 A2998 RMK AO2 LTG DSNT ALQS T02450222
KJXI 210855Z AUTO 00000KT 10SM CLR 25/22 A2997 RMK AO2 T02450221
KJXI 210835Z AUTO 00000KT 10SM CLR 25/22 A2997 RMK AO2 T02470220
KJXI 210815Z AUTO 16004KT 10SM TS SCT120 25/22 A2997 RMK AO2 LTG DSNT ALQS T02470218
KJXI 210755Z AUTO 17004KT 10SM TS BKN120 25/22 A2997 RMK AO2 LTG DSNT N AND NE T02470215
KJXI 210735Z AUTO 16005KT 10SM OVC120 25/21 A2997 RMK AO2 T02460212
KJXI 210715Z AUTO 15004KT 10SM BKN120 25/21 A2997 RMK AO2 T02460211
KJXI 210655Z AUTO 16004KT 10SM SCT120 25/21 A2997 RMK AO2 T02460210
KJXI 210635Z AUTO 00000KT 10SM CLR 25/21 A2997 RMK AO2 T02470211
KJXI 210615Z AUTO 16003KT 10SM CLR 25/21 A2997 RMK AO2 T02460211
KJXI 210555Z AUTO 16003KT 10SM CLR 25/21 A2997 RMK AO2 T02480213 10295 20248 403280208
KJXI 210535Z AUTO 00000KT 10SM CLR 25/22 A2997 RMK AO2 T02500218
KJXI 210515Z AUTO 17003KT 10SM CLR 25/22 A2998 RMK AO2 T02510220
KJXI 210455Z AUTO 00000KT 10SM CLR 25/22 A2997 RMK AO2 T02530220
KJXI 210435Z AUTO 18004KT 10SM CLR 26/22 A2998 RMK AO2 T02570222
KJXI 210415Z AUTO 18004KT 10SM CLR 26/22 A2998 RMK AO2 T02560223
KJXI 210355Z AUTO 00000KT 10SM CLR 26/23 A2998 RMK AO2 T02550225
KJXI 210335Z AUTO 00000KT 10SM CLR 26/23 A2997 RMK AO2 T02550225
KJXI 210315Z AUTO 00000KT 10SM CLR 26/22 A2997 RMK AO2 T02600222
KJXI 210255Z AUTO 00000KT 10SM CLR 26/22 A2998 RMK AO2 T02620223
KJXI 210235Z AUTO 00000KT 10SM CLR 27/22 A2997 RMK AO2 T02670218
KJXI 210215Z AUTO 18003KT 10SM CLR 27/22 A2997 RMK AO2 T02680220
KJXI 210155Z AUTO 00000KT 10SM CLR 27/22 A2996 RMK AO2 T02710220
KJXI 210135Z AUTO 00000KT 10SM CLR 27/22 A2995 RMK AO2 T02740220
KJXI 210115Z AUTO 00000KT 10SM CLR 28/22 A2993 RMK AO2 T02780216
KJXI 210055Z AUTO 00000KT 10SM CLR 29/21 A2993 RMK AO2 LTG DSNT S T02850214
KJXI 210035Z AUTO 17005KT 10SM CLR 29/21 A2991 RMK AO2 LTG DSNT S T02860214
KJXI 210015Z AUTO 15004KT 10SM CLR 29/21 A2991 RMK AO2 LTG DSNT S T02900213
KJXI 202355Z AUTO 16004KT 10SM CLR 30/21 A2990 RMK AO2 LTG DSNT SW T02960213 10328 20296
KJXI 202335Z AUTO 16004KT 10SM CLR 30/21 A2990 RMK AO2 T03000212
KJXI 202315Z AUTO 16004KT 10SM TS CLR 31/21 A2990 RMK AO2 LTG DSNT N AND NE T03050214
KJXI 202255Z AUTO 15003KT 10SM CLR 31/21 A2991 RMK AO2 T03070213
KJXI 202235Z AUTO 16005KT 10SM SCT050 SCT065 31/21 A2991 RMK AO2 T03130208
KJXI 202215Z AUTO 18006KT 10SM SCT050 32/21 A2991 RMK AO2 T03190206
KJXI 202155Z AUTO 17004KT 10SM SCT050 SCT070 32/20 A2991 RMK AO2 T03200204
KJXI 202135Z AUTO 16008KT 10SM SCT049 SCT110 33/20 A2991 RMK AO2 T03250204
KJXI 202115Z AUTO 15008KT 10SM BKN049 BKN060 BKN110 33/21 A2992 RMK AO2 T03260205
KJXI 202055Z AUTO 13003G15KT 10SM SCT049 SCT100 32/21 A2993 RMK AO2 T03220205
KJXI 202035Z AUTO 14009KT 10SM SCT049 SCT065 BKN100 32/20 A2993 RMK AO2 T03230204
KJXI 202015Z AUTO 14005KT 10SM SCT049 SCT055 31/21 A2994 RMK AO2 T03120208
KJXI 201955Z AUTO 12007KT 100V160 10SM SCT049 BKN055 32/21 A2995 RMK AO2 T03200208
KJXI 201935Z AUTO 14004KT 10SM BKN049 32/21 A2995 RMK AO2 T03170210
KJXI 201915Z AUTO 13004G14KT 10SM SCT049 32/20 A2996 RMK AO2 T03190201
KJXI 201855Z AUTO 13009KT 10SM SCT049 SCT055 32/20 A2997 RMK AO2 T03190204
KJXI 201835Z AUTO 14007KT 10SM SCT047 SCT090 32/21 A2998 RMK AO2 T03150206
KJXI 201815Z AUTO 17007KT 120V180 10SM CLR 32/21 A2998 RMK AO2 T03160208
KJXI 201755Z AUTO 18008KT 10SM SCT038 SCT100 31/21 A2999 RMK AO2 T03110209 10311 20208
KJXI 201735Z AUTO 16006KT 10SM SCT038 31/22 A3000 RMK AO2 T03080218
KJXI 201715Z AUTO 13005KT 10SM TS CLR 30/22 A3001 RMK AO2 LTG DSNT NW THRU E T03000223
KJXI 201655Z AUTO 15004KT 10SM CLR 29/22 A3002 RMK AO2 T02930217
KJXI 201635Z AUTO 15006KT 10SM CLR 29/22 A3002 RMK AO2 T02900218
KJXI 201615Z AUTO 15003KT 10SM CLR 29/22 A3002 RMK AO2 T02850220
KJXI 201555Z AUTO 15003KT 10SM CLR 29/22 A3002 RMK AO2 T02850224
KJXI 201535Z AUTO 21003KT 10SM CLR 28/23 A3002 RMK AO2 T02750227
KJXI 201515Z AUTO 18004KT 10SM TS CLR 27/23 A3001 RMK AO2 LTG DSNT NW THRU NE T02690230
KJXI 201455Z AUTO 18004KT 10SM CLR 26/23 A3001 RMK AO2 T02620228
KJXI 201435Z AUTO 00000KT 10SM CLR 26/23 A3001 RMK AO2 T02570228
KJXI 201415Z AUTO 00000KT 10SM CLR 25/23 A3001 RMK AO2 T02500226
KJXI 201355Z AUTO 00000KT 10SM CLR 24/22 A3000 RMK AO2 T02400221
KJXI 201335Z AUTO 17003KT 10SM CLR 23/22 A3000 RMK AO2 T02340219
KJXI 201315Z AUTO 00000KT 10SM CLR 23/22 A2999 RMK AO2 T02260215
KJXI 201255Z AUTO 00000KT 10SM SCT110 22/21 A2999 RMK AO2 T02180210
KJXI 201235Z AUTO 00000KT 10SM CLR 22/21 A2999 RMK AO2 T02170210
KJXI 201215Z AUTO 00000KT 10SM SCT100 21/21 A2998 RMK AO2 T02110205
KJXI 201155Z AUTO 00000KT 10SM CLR 22/21 A2998 RMK AO2 70039 T02150206 10221 20210
KJXI 201135Z AUTO 00000KT 10SM CLR 22/21 A2997 RMK AO2 T02150205
KJXI 201115Z AUTO 00000KT 10SM CLR 21/21 A2997 RMK AO2 T02110205
KJXI 201055Z AUTO 00000KT 10SM CLR 22/21 A2996 RMK AO2 T02150205
KJXI 201035Z AUTO 00000KT 10SM CLR 22/21 A2996 RMK AO2 T02150206
KJXI 201015Z AUTO 00000KT 10SM CLR 21/21 A2996 RMK AO2 T02120206
KJXI 200955Z AUTO 15003KT 10SM CLR 22/20 A2995 RMK AO2 T02180202
KJXI 200935Z AUTO 00000KT 10SM CLR 22/20 A2995 RMK AO2 T02160203
KJXI 200915Z AUTO 00000KT 10SM TS CLR 22/20 A2995 RMK AO2 LTG DSNT N NE AND S T02160204
KJXI 200855Z AUTO 14003KT 10SM CLR 22/21 A2995 RMK AO2 T02150206
KJXI 200835Z AUTO 12004KT 10SM CLR 21/21 A2995 RMK AO2 T02120210
KJXI 200815Z AUTO 00000KT 10SM TS CLR 22/21 A2995 RMK AO2 LTG DSNT N AND NE T02200207
KJXI 200755Z AUTO 00000KT 10SM SCT110 22/21 A2995 RMK AO2 T02200209
KJXI 200735Z AUTO 00000KT 10SM CLR 22/21 A2996 RMK AO2 T02180209
KJXI 200715Z AUTO 00000KT 10SM CLR 22/21 A2996 RMK AO2 T02180211
KJXI 200655Z AUTO 00000KT 10SM CLR 22/21 A2996 RMK AO2 T02170210
KJXI 200635Z AUTO 00000KT 10SM CLR 22/21 A2996 RMK AO2 T02210212
KJXI 200615Z AUTO 00000KT 10SM CLR 22/21 A2996 RMK AO2 T02160210
KJXI 200555Z AUTO 00000KT 10SM CLR 22/21 A2996 RMK AO2 60039 T02180210 10322 20218 403560218
KJXI 200535Z AUTO 00000KT 10SM CLR 23/20 A2995 RMK AO2 T02270203